Time;durP1;ratioP1;P1;durP2;ratioP2;P2;SDS_P1;SDS_P2;PMS_P1;PMS_P2;Temp;Humidity;BMP_temperature;BMP_pressure;BME280_temperature;BME280_humidity;BME280_pressure;Samples;Min_cycle;Max_cycle;Signal;HPM_P1;HPM_P2
2021/06/26 00:00:17;;;;;;;23.43;15.97;;;17.20;99.90;;;;;;5110949;23;20249;-75
2021/06/26 00:02:19;;;;;;;22.27;16.20;;;17.30;99.90;;;;;;5111574;23;20193;-76
2021/06/26 00:04:21;;;;;;;23.43;16.47;;;17.20;99.90;;;;;;5110560;23;20740;-76
2021/06/26 00:06:24;;;;;;;23.03;16.30;;;17.20;99.90;;;;;;5111940;23;20232;-75
2021/06/26 00:08:26;;;;;;;22.63;15.30;;;17.10;99.90;;;;;;5111273;23;20435;-75
2021/06/26 00:10:28;;;;;;;22.40;16.40;;;17.10;99.90;;;;;;5111368;23;20190;-75
2021/06/26 00:12:31;;;;;;;21.77;15.73;;;17.10;99.90;;;;;;5111165;23;20240;-75
2021/06/26 00:14:32;;;;;;;24.43;16.47;;;17.00;99.90;;;;;;5111201;23;20209;-75
2021/06/26 00:16:34;;;;;;;23.27;16.20;;;17.00;99.90;;;;;;5110713;23;20193;-75
2021/06/26 00:18:36;;;;;;;25.93;17.03;;;17.00;99.90;;;;;;5110970;23;20190;-75
2021/06/26 00:20:38;;;;;;;24.03;16.43;;;17.00;99.90;;;;;;5111191;23;20190;-75
2021/06/26 00:22:39;;;;;;;22.07;15.90;;;17.00;99.90;;;;;;5110656;23;20197;-75
2021/06/26 00:24:41;;;;;;;24.27;16.07;;;16.90;99.90;;;;;;5111025;23;20214;-75
2021/06/26 00:26:43;;;;;;;23.20;16.13;;;16.90;99.90;;;;;;5111792;23;20189;-75
2021/06/26 00:28:46;;;;;;;25.43;17.17;;;16.90;99.90;;;;;;5110936;23;20208;-75
2021/06/26 00:30:48;;;;;;;25.93;17.13;;;16.90;99.90;;;;;;5111636;23;20195;-75
2021/06/26 00:32:50;;;;;;;26.43;17.47;;;16.80;99.90;;;;;;5111295;23;20192;-75
2021/06/26 00:34:52;;;;;;;25.10;17.77;;;16.80;99.90;;;;;;5111227;23;20233;-76
2021/06/26 00:36:54;;;;;;;26.00;17.57;;;16.80;99.90;;;;;;5112839;23;20239;-75
2021/06/26 00:38:55;;;;;;;25.80;17.63;;;16.80;99.90;;;;;;5110963;23;20185;-75
2021/06/26 00:40:57;;;;;;;26.33;18.30;;;16.80;99.90;;;;;;5116653;23;20186;-75
2021/06/26 00:42:59;;;;;;;25.63;17.67;;;16.70;99.90;;;;;;5117530;23;20193;-75
2021/06/26 00:45:04;;;;;;;31.53;20.50;;;16.70;99.90;;;;;;5117562;23;20276;-75
2021/06/26 00:47:11;;;;;;;28.83;18.87;;;16.70;99.90;;;;;;5118469;23;20196;-75
2021/06/26 00:49:13;;;;;;;28.87;19.13;;;16.60;99.90;;;;;;5117490;23;20188;-75
2021/06/26 00:51:15;;;;;;;28.33;18.90;;;16.60;99.90;;;;;;5117687;23;20251;-75
2021/06/26 00:53:17;;;;;;;30.80;20.17;;;16.60;99.90;;;;;;5116878;23;20246;-74
2021/06/26 00:55:20;;;;;;;30.37;20.90;;;16.50;99.90;;;;;;5117570;23;20205;-74
2021/06/26 00:57:22;;;;;;;32.07;21.40;;;16.50;99.90;;;;;;5116995;23;20597;-76
2021/06/26 00:59:25;;;;;;;33.93;21.23;;;16.50;99.90;;;;;;5117553;23;20193;-75
2021/06/26 01:01:28;;;;;;;30.40;21.30;;;16.50;99.90;;;;;;5118196;23;20565;-75
2021/06/26 01:03:30;;;;;;;29.57;20.67;;;16.50;99.90;;;;;;5116345;23;20185;-75
2021/06/26 01:05:32;;;;;;;32.87;22.43;;;16.40;99.90;;;;;;5117362;23;20214;-76
2021/06/26 01:07:34;;;;;;;37.03;22.60;;;16.40;99.90;;;;;;5117930;23;20185;-76
2021/06/26 01:09:36;;;;;;;34.00;21.80;;;16.40;99.90;;;;;;5117345;23;20205;-76
2021/06/26 01:11:37;;;;;;;34.17;21.57;;;16.40;99.90;;;;;;5117595;23;20192;-76
2021/06/26 01:13:39;;;;;;;35.07;23.00;;;16.40;99.90;;;;;;5117514;23;20193;-76
2021/06/26 01:15:41;;;;;;;33.93;21.53;;;16.30;99.90;;;;;;5117739;23;20393;-76
2021/06/26 01:17:45;;;;;;;33.47;22.97;;;16.30;99.90;;;;;;5117745;23;20259;-76
2021/06/26 01:19:46;;;;;;;34.30;22.47;;;16.30;99.90;;;;;;5117195;23;20628;-75
2021/06/26 01:21:53;;;;;;;33.17;22.73;;;16.20;99.90;;;;;;5117784;23;20628;-76
2021/06/26 01:23:56;;;;;;;34.17;22.60;;;16.20;99.90;;;;;;5117748;23;20197;-76
2021/06/26 01:25:58;;;;;;;36.83;22.90;;;16.20;99.90;;;;;;5117544;23;20189;-76
2021/06/26 01:28:01;;;;;;;35.50;23.10;;;16.20;99.90;;;;;;5117394;23;20188;-76
2021/06/26 01:30:04;;;;;;;36.67;23.97;;;16.20;99.90;;;;;;5116931;23;20659;-76
2021/06/26 01:32:09;;;;;;;35.30;23.57;;;16.10;99.90;;;;;;5117475;23;20187;-76
2021/06/26 01:34:10;;;;;;;33.67;23.00;;;16.10;99.90;;;;;;5117300;23;20259;-75
2021/06/26 01:36:12;;;;;;;35.27;21.60;;;16.10;99.90;;;;;;5117254;23;20195;-76
2021/06/26 01:38:14;;;;;;;33.33;22.47;;;16.10;99.90;;;;;;5117259;23;20502;-76
2021/06/26 01:40:18;;;;;;;33.70;22.70;;;16.10;99.90;;;;;;5117240;23;20187;-76
2021/06/26 01:42:20;;;;;;;33.33;22.40;;;16.10;99.90;;;;;;5117567;23;20239;-76
2021/06/26 01:44:22;;;;;;;34.87;22.33;;;16.00;99.90;;;;;;5117547;23;20667;-76
2021/06/26 01:46:23;;;;;;;29.47;21.00;;;16.00;99.90;;;;;;5116648;23;20243;-76
2021/06/26 01:48:25;;;;;;;32.47;21.30;;;16.00;99.90;;;;;;5117569;23;20196;-76
2021/06/26 01:50:29;;;;;;;31.40;21.33;;;16.00;99.90;;;;;;5116991;23;20207;-76
2021/06/26 01:52:30;;;;;;;33.17;21.53;;;16.00;99.90;;;;;;5117565;23;20185;-76
2021/06/26 01:54:32;;;;;;;33.03;21.83;;;15.90;99.90;;;;;;5117128;23;20205;-76
2021/06/26 01:56:36;;;;;;;34.30;22.13;;;15.90;99.90;;;;;;5117292;23;20211;-76
2021/06/26 01:58:38;;;;;;;35.37;22.03;;;15.90;99.90;;;;;;5117629;23;20188;-76
2021/06/26 02:00:40;;;;;;;32.67;22.20;;;15.90;99.90;;;;;;5117168;23;20188;-76
2021/06/26 02:02:42;;;;;;;32.97;21.87;;;15.80;99.90;;;;;;5116798;23;20195;-76
2021/06/26 02:04:44;;;;;;;40.80;23.33;;;15.80;99.90;;;;;;5117258;23;20729;-76
2021/06/26 02:06:45;;;;;;;31.87;22.03;;;15.80;99.90;;;;;;5117406;23;20173;-76
2021/06/26 02:08:47;;;;;;;40.77;22.57;;;15.80;99.90;;;;;;5117197;23;20184;-76
2021/06/26 02:10:49;;;;;;;34.30;22.50;;;15.80;99.90;;;;;;5117356;23;20242;-76
2021/06/26 02:12:52;;;;;;;34.10;21.53;;;15.70;99.90;;;;;;5116899;23;20303;-76
2021/06/26 02:14:54;;;;;;;32.20;21.40;;;15.70;99.90;;;;;;5117362;23;20204;-76
2021/06/26 02:16:55;;;;;;;34.90;22.23;;;15.70;99.90;;;;;;5116963;23;20221;-76
2021/06/26 02:18:57;;;;;;;33.43;21.97;;;15.60;99.90;;;;;;5116685;23;20195;-75
2021/06/26 02:20:59;;;;;;;34.17;22.33;;;15.60;99.90;;;;;;5116853;23;20498;-76
2021/06/26 02:23:00;;;;;;;32.33;22.10;;;15.60;99.90;;;;;;5117326;23;20184;-76
2021/06/26 02:25:05;;;;;;;34.20;22.67;;;15.60;99.90;;;;;;5117020;23;20208;-76
2021/06/26 02:27:07;;;;;;;35.40;23.60;;;15.60;99.90;;;;;;5116834;23;20187;-76
2021/06/26 02:29:10;;;;;;;37.33;23.67;;;15.60;99.90;;;;;;5116268;23;20203;-76
2021/06/26 02:31:12;;;;;;;36.17;23.40;;;15.50;99.90;;;;;;5117332;23;20234;-76
2021/06/26 02:33:13;;;;;;;36.43;23.30;;;15.50;99.90;;;;;;5117176;23;20640;-76
2021/06/26 02:35:15;;;;;;;36.20;24.00;;;15.50;99.90;;;;;;5117209;23;20254;-76
2021/06/26 02:37:17;;;;;;;34.83;22.83;;;15.50;99.90;;;;;;5116908;23;20237;-76
2021/06/26 02:39:19;;;;;;;38.13;23.97;;;15.50;99.90;;;;;;5116112;23;20183;-76
2021/06/26 02:41:22;;;;;;;39.70;23.93;;;15.50;99.90;;;;;;5117521;23;20635;-76
2021/06/26 02:43:24;;;;;;;37.67;23.03;;;15.50;99.90;;;;;;5117144;23;20191;-76
2021/06/26 02:45:26;;;;;;;37.43;23.57;;;15.40;99.90;;;;;;5117381;23;20219;-76
2021/06/26 02:47:28;;;;;;;38.43;25.33;;;15.40;99.90;;;;;;5117055;23;20193;-76
2021/06/26 02:49:30;;;;;;;37.80;24.03;;;15.40;99.90;;;;;;5115783;23;20207;-76
2021/06/26 02:51:32;;;;;;;35.50;23.03;;;15.40;99.90;;;;;;5116190;23;20214;-76
2021/06/26 02:53:33;;;;;;;35.50;23.60;;;15.40;99.90;;;;;;5117067;23;20188;-76
2021/06/26 02:55:35;;;;;;;36.90;23.17;;;15.40;99.90;;;;;;5117015;23;20208;-76
2021/06/26 02:57:37;;;;;;;38.77;22.73;;;15.40;99.90;;;;;;5116948;23;20238;-76
2021/06/26 02:59:39;;;;;;;37.47;21.37;;;15.40;99.90;;;;;;5116765;23;20576;-76
2021/06/26 03:01:42;;;;;;;32.90;21.63;;;15.40;99.90;;;;;;5117422;23;20666;-76
2021/06/26 03:03:43;;;;;;;34.10;23.27;;;15.40;99.90;;;;;;5117290;23;20520;-76
2021/06/26 03:05:45;;;;;;;34.07;22.07;;;15.50;99.90;;;;;;5115353;23;20274;-76
2021/06/26 03:07:51;;;;;;;33.57;22.27;;;15.40;99.90;;;;;;5116329;23;20237;-76
2021/06/26 03:09:52;;;;;;;36.33;22.33;;;15.40;99.90;;;;;;5116558;23;20263;-76
2021/06/26 03:11:54;;;;;;;37.17;22.47;;;15.40;99.90;;;;;;5117009;23;20188;-76
2021/06/26 03:13:56;;;;;;;32.80;21.00;;;15.40;99.90;;;;;;5117241;23;20191;-76
2021/06/26 03:15:57;;;;;;;34.37;22.00;;;15.40;99.90;;;;;;5117141;23;20188;-74
2021/06/26 03:18:01;;;;;;;34.27;21.10;;;15.40;99.90;;;;;;5117270;23;20577;-74
2021/06/26 03:20:03;;;;;;;34.23;22.30;;;15.40;99.90;;;;;;5116389;23;20184;-75
2021/06/26 03:22:05;;;;;;;33.63;21.17;;;15.50;99.90;;;;;;5117239;23;20573;-75
2021/06/26 03:24:08;;;;;;;33.13;21.03;;;15.40;99.90;;;;;;5116008;23;21000;-75
2021/06/26 03:26:10;;;;;;;31.00;20.70;;;15.50;99.90;;;;;;5116936;23;20530;-75
2021/06/26 03:28:12;;;;;;;32.83;21.27;;;15.50;99.90;;;;;;5116099;23;20188;-75
2021/06/26 03:30:14;;;;;;;32.30;20.90;;;15.50;99.90;;;;;;5115147;23;20211;-75
2021/06/26 03:32:17;;;;;;;31.27;21.27;;;15.50;99.90;;;;;;5117453;23;20191;-75
2021/06/26 03:34:20;;;;;;;28.57;20.40;;;15.50;99.90;;;;;;5116161;23;20212;-75
2021/06/26 03:36:23;;;;;;;33.20;21.53;;;15.50;99.90;;;;;;5116333;23;20180;-75
2021/06/26 03:38:25;;;;;;;33.20;21.67;;;15.50;99.90;;;;;;5117097;23;20188;-75
2021/06/26 03:40:27;;;;;;;34.83;22.40;;;15.50;99.90;;;;;;5116285;23;21057;-75
2021/06/26 03:42:29;;;;;;;34.83;22.30;;;15.50;99.90;;;;;;5117457;23;20188;-75
2021/06/26 03:44:30;;;;;;;34.40;22.30;;;15.50;99.90;;;;;;5116075;23;20208;-75
2021/06/26 03:46:33;;;;;;;34.13;22.10;;;15.60;99.90;;;;;;5117003;23;20270;-75
2021/06/26 03:48:35;;;;;;;33.47;22.83;;;15.60;99.90;;;;;;5117182;23;20266;-75
2021/06/26 03:50:39;;;;;;;32.73;21.83;;;15.60;99.90;;;;;;5116008;23;20596;-75
2021/06/26 03:52:41;;;;;;;38.47;23.87;;;15.60;99.90;;;;;;5117000;23;20184;-75
2021/06/26 03:54:43;;;;;;;32.80;22.27;;;15.70;99.90;;;;;;5116789;23;20209;-75
2021/06/26 03:56:44;;;;;;;34.83;22.97;;;15.70;99.90;;;;;;5117444;23;20250;-74
2021/06/26 03:58:46;;;;;;;36.30;23.13;;;15.70;99.90;;;;;;5115352;23;20187;-76
2021/06/26 04:00:48;;;;;;;40.20;23.27;;;15.70;99.90;;;;;;5116907;23;20557;-76
2021/06/26 04:02:49;;;;;;;40.03;24.07;;;15.70;99.90;;;;;;5117197;23;20696;-76
2021/06/26 04:04:51;;;;;;;37.93;23.50;;;15.70;99.90;;;;;;5115405;23;20527;-76
2021/06/26 04:06:54;;;;;;;37.50;23.17;;;15.70;99.90;;;;;;5115415;23;20172;-76
2021/06/26 04:08:56;;;;;;;35.27;23.43;;;15.70;99.90;;;;;;5116405;23;20184;-75
2021/06/26 04:10:57;;;;;;;35.67;22.83;;;15.70;99.90;;;;;;5117791;23;20209;-75
2021/06/26 04:13:00;;;;;;;37.83;23.33;;;15.70;99.90;;;;;;5118039;23;20241;-75
2021/06/26 04:15:01;;;;;;;34.13;23.47;;;15.70;99.90;;;;;;5118284;23;20216;-76
2021/06/26 04:17:04;;;;;;;35.50;23.73;;;15.70;99.90;;;;;;5118263;23;20258;-76
2021/06/26 04:19:05;;;;;;;34.70;22.27;;;15.70;99.90;;;;;;5117960;23;20241;-75
2021/06/26 04:21:07;;;;;;;32.97;22.50;;;15.70;99.90;;;;;;5118792;23;20227;-75
2021/06/26 04:23:10;;;;;;;32.30;21.27;;;15.70;99.90;;;;;;5118254;23;20185;-74
2021/06/26 04:25:13;;;;;;;34.60;22.93;;;15.70;99.90;;;;;;5118457;23;20270;-74
2021/06/26 04:27:15;;;;;;;33.00;22.17;;;15.70;99.90;;;;;;5117034;23;20662;-76
2021/06/26 04:29:17;;;;;;;32.20;21.93;;;15.80;99.90;;;;;;5118157;23;20197;-76
2021/06/26 04:31:19;;;;;;;32.27;21.50;;;15.80;99.90;;;;;;5118033;23;20529;-76
2021/06/26 04:33:21;;;;;;;35.63;23.70;;;15.80;99.90;;;;;;5116967;23;20191;-75
2021/06/26 04:35:25;;;;;;;33.40;22.53;;;15.80;99.90;;;;;;5118095;23;20208;-75
2021/06/26 04:37:26;;;;;;;35.60;22.27;;;15.80;99.90;;;;;;5117719;23;20581;-74
2021/06/26 04:39:29;;;;;;;33.07;23.20;;;15.90;99.90;;;;;;5118440;23;20189;-74
2021/06/26 04:41:31;;;;;;;37.33;23.87;;;15.90;99.90;;;;;;5117242;23;20570;-74
2021/06/26 04:43:33;;;;;;;32.27;21.83;;;15.90;99.90;;;;;;5114976;23;20186;-74
2021/06/26 04:45:34;;;;;;;34.07;22.50;;;15.90;99.90;;;;;;5117535;23;20235;-74
2021/06/26 04:47:36;;;;;;;37.20;23.67;;;15.90;99.90;;;;;;5118002;23;20849;-74
2021/06/26 04:49:38;;;;;;;35.43;22.77;;;15.90;99.90;;;;;;5116929;23;20188;-74
2021/06/26 04:51:40;;;;;;;36.30;24.17;;;15.90;99.90;;;;;;5117342;23;20223;-74
2021/06/26 04:53:41;;;;;;;34.07;22.63;;;15.90;99.90;;;;;;5117651;23;20194;-75
2021/06/26 04:55:51;;;;;;;36.90;22.97;;;16.00;99.90;;;;;;5117182;23;20234;-74
2021/06/26 04:57:53;;;;;;;34.20;23.37;;;16.00;99.90;;;;;;5117997;23;20170;-74
2021/06/26 04:59:55;;;;;;;35.60;23.27;;;16.10;99.90;;;;;;5117763;23;20185;-74
2021/06/26 05:01:56;;;;;;;34.73;23.17;;;16.10;99.90;;;;;;5116630;23;20195;-74
2021/06/26 05:03:58;;;;;;;35.70;23.50;;;16.20;99.90;;;;;;5117504;23;20189;-74
2021/06/26 05:06:00;;;;;;;35.23;24.03;;;16.20;99.90;;;;;;5116430;23;20205;-74
2021/06/26 05:08:02;;;;;;;35.43;24.07;;;16.30;99.90;;;;;;5116434;23;20276;-74
2021/06/26 05:10:04;;;;;;;34.50;23.70;;;16.30;99.90;;;;;;5116397;23;20209;-76
2021/06/26 05:12:09;;;;;;;34.93;24.53;;;16.40;99.90;;;;;;5116955;23;20183;-76
2021/06/26 05:14:11;;;;;;;32.10;21.77;;;16.40;99.90;;;;;;5116773;23;20260;-76
2021/06/26 05:16:13;;;;;;;35.00;22.27;;;16.50;99.90;;;;;;5117242;23;20642;-76
2021/06/26 05:18:15;;;;;;;32.63;22.33;;;16.60;99.90;;;;;;5117248;23;20186;-76
2021/06/26 05:20:17;;;;;;;33.87;22.17;;;16.60;99.90;;;;;;5117359;23;20248;-75
2021/06/26 05:22:19;;;;;;;33.00;22.63;;;16.70;99.90;;;;;;5116915;23;20634;-75
2021/06/26 05:24:21;;;;;;;34.80;23.20;;;16.70;99.90;;;;;;5117672;23;20207;-74
2021/06/26 05:26:23;;;;;;;37.70;22.60;;;16.80;99.90;;;;;;5117543;23;20194;-75
2021/06/26 05:28:26;;;;;;;33.57;22.10;;;16.80;99.90;;;;;;5116513;23;20186;-74
2021/06/26 05:30:27;;;;;;;32.37;21.90;;;16.90;99.90;;;;;;5117652;23;20202;-76
2021/06/26 05:32:29;;;;;;;31.17;22.40;;;17.00;99.90;;;;;;5117071;23;20214;-76
2021/06/26 05:34:31;;;;;;;31.63;22.30;;;16.90;99.90;;;;;;5116307;23;20690;-76
2021/06/26 05:36:33;;;;;;;36.07;23.87;;;17.10;99.90;;;;;;5116747;23;20183;-76
2021/06/26 05:38:35;;;;;;;31.47;22.23;;;17.10;99.90;;;;;;5117561;23;20190;-75
2021/06/26 05:40:36;;;;;;;31.90;21.53;;;17.20;99.90;;;;;;5117723;23;20179;-74
2021/06/26 05:42:38;;;;;;;32.17;21.80;;;17.20;99.90;;;;;;5116522;23;20186;-74
2021/06/26 05:44:41;;;;;;;31.67;21.90;;;17.30;99.90;;;;;;5117217;23;20266;-74
2021/06/26 05:46:43;;;;;;;30.90;21.47;;;17.30;99.90;;;;;;5117315;23;20191;-75
2021/06/26 05:48:45;;;;;;;32.00;22.03;;;17.30;99.90;;;;;;5117551;23;20188;-74
2021/06/26 05:50:46;;;;;;;36.20;22.20;;;17.40;99.90;;;;;;5117778;23;20202;-74
2021/06/26 05:52:49;;;;;;;35.00;22.70;;;17.40;99.90;;;;;;5117041;23;20187;-75
2021/06/26 05:54:51;;;;;;;35.03;22.77;;;17.40;99.90;;;;;;5117847;23;20273;-75
2021/06/26 05:56:53;;;;;;;32.63;22.33;;;17.40;99.90;;;;;;5116395;23;20488;-75
2021/06/26 05:58:54;;;;;;;31.13;21.23;;;17.40;99.90;;;;;;5117306;23;20237;-75
2021/06/26 06:00:58;;;;;;;31.87;21.87;;;17.40;99.90;;;;;;5117622;23;20630;-75
2021/06/26 06:03:02;;;;;;;30.93;22.00;;;17.50;99.90;;;;;;5117577;23;20191;-75
2021/06/26 06:05:04;;;;;;;31.50;21.27;;;17.50;99.90;;;;;;5117431;23;20282;-75
2021/06/26 06:07:06;;;;;;;29.83;21.40;;;17.50;99.90;;;;;;5116394;23;20566;-75
2021/06/26 06:09:08;;;;;;;31.80;21.27;;;17.50;99.90;;;;;;5116296;23;20183;-74
2021/06/26 06:11:10;;;;;;;34.37;21.23;;;17.50;99.90;;;;;;5116653;23;20203;-76
2021/06/26 06:13:13;;;;;;;32.83;22.10;;;17.50;99.90;;;;;;5117940;23;20190;-76
2021/06/26 06:15:15;;;;;;;31.63;21.87;;;17.60;99.90;;;;;;5116834;23;20210;-76
2021/06/26 06:17:18;;;;;;;31.20;20.90;;;17.60;99.90;;;;;;5117980;23;20187;-76
2021/06/26 06:19:20;;;;;;;31.23;21.73;;;17.60;99.90;;;;;;5117360;23;20187;-76
2021/06/26 06:21:21;;;;;;;27.37;20.13;;;17.70;99.90;;;;;;5116544;23;20179;-76
2021/06/26 06:23:23;;;;;;;28.90;20.10;;;17.70;99.90;;;;;;5117906;23;20187;-76
2021/06/26 06:25:25;;;;;;;31.67;22.40;;;17.70;99.90;;;;;;5116523;23;20242;-74
2021/06/26 06:27:26;;;;;;;32.83;21.70;;;17.70;99.90;;;;;;5116947;23;20277;-76
2021/06/26 06:29:28;;;;;;;30.37;21.10;;;17.70;99.90;;;;;;5116664;23;20647;-76
2021/06/26 06:31:30;;;;;;;29.77;21.27;;;17.80;99.90;;;;;;5116999;23;20199;-76
2021/06/26 06:33:33;;;;;;;32.53;20.43;;;17.80;99.90;;;;;;5117845;23;20187;-75
2021/06/26 06:35:35;;;;;;;29.37;19.97;;;17.80;99.90;;;;;;5117332;23;20204;-75
2021/06/26 06:37:37;;;;;;;30.67;20.23;;;17.80;99.90;;;;;;5117720;23;20221;-75
2021/06/26 06:39:39;;;;;;;28.53;20.43;;;17.80;99.90;;;;;;5114972;23;20515;-75
2021/06/26 06:41:40;;;;;;;30.53;20.77;;;17.90;99.90;;;;;;5117141;23;20193;-75
2021/06/26 06:43:42;;;;;;;31.17;21.27;;;17.90;99.90;;;;;;5116465;23;20187;-75
2021/06/26 06:45:44;;;;;;;30.87;20.97;;;17.90;99.90;;;;;;5116819;23;20732;-75
2021/06/26 06:47:45;;;;;;;33.27;21.07;;;17.90;99.90;;;;;;5116001;23;20183;-75
2021/06/26 06:49:48;;;;;;;28.10;20.13;;;18.00;99.90;;;;;;5116232;23;20238;-75
2021/06/26 06:51:50;;;;;;;30.73;20.63;;;18.00;99.90;;;;;;5116277;23;20249;-74
2021/06/26 06:53:53;;;;;;;30.87;21.00;;;18.10;99.90;;;;;;5116276;23;20557;-74
2021/06/26 06:55:58;;;;;;;30.43;21.13;;;18.10;99.90;;;;;;5117194;23;20291;-76
2021/06/26 06:58:00;;;;;;;30.20;20.43;;;18.10;99.90;;;;;;5116983;23;20569;-74
2021/06/26 07:00:02;;;;;;;28.27;20.60;;;18.20;99.90;;;;;;5116144;23;20187;-74
2021/06/26 07:02:04;;;;;;;29.17;19.70;;;18.20;99.90;;;;;;5116509;23;20183;-74
2021/06/26 07:04:06;;;;;;;28.53;19.87;;;18.20;99.90;;;;;;5115495;23;20186;-77
2021/06/26 07:06:09;;;;;;;28.00;20.43;;;18.20;99.90;;;;;;5116262;23;20197;-76
2021/06/26 07:08:11;;;;;;;28.70;19.63;;;18.30;99.90;;;;;;5115816;23;20241;-77
2021/06/26 07:10:13;;;;;;;31.87;19.43;;;18.30;99.90;;;;;;5116909;23;20186;-76
2021/06/26 07:12:15;;;;;;;29.83;18.90;;;18.40;99.90;;;;;;5117321;23;20281;-76
2021/06/26 07:14:16;;;;;;;30.97;19.83;;;18.40;99.90;;;;;;5115937;23;20184;-77
2021/06/26 07:16:18;;;;;;;28.40;18.53;;;18.40;99.90;;;;;;5115872;23;20190;-77
2021/06/26 07:18:21;;;;;;;30.73;20.10;;;18.50;99.90;;;;;;5117430;23;20249;-77
2021/06/26 07:20:22;;;;;;;29.90;19.10;;;18.50;99.90;;;;;;5116667;23;20183;-76
2021/06/26 07:22:25;;;;;;;30.23;19.60;;;18.60;99.90;;;;;;5116891;23;20218;-77
2021/06/26 07:24:27;;;;;;;28.53;19.13;;;18.60;99.90;;;;;;5116422;23;20214;-77
2021/06/26 07:26:29;;;;;;;25.47;19.30;;;18.70;99.90;;;;;;5117230;23;20186;-77
2021/06/26 07:28:31;;;;;;;28.33;19.73;;;18.70;99.90;;;;;;5116131;23;20186;-76
2021/06/26 07:30:32;;;;;;;27.90;19.77;;;18.80;99.90;;;;;;5116134;23;20222;-76
2021/06/26 07:32:34;;;;;;;25.50;18.37;;;18.80;99.90;;;;;;5116600;23;20239;-76
2021/06/26 07:34:36;;;;;;;25.07;17.50;;;18.90;99.90;;;;;;5116557;23;20604;-76
2021/06/26 07:36:37;;;;;;;25.63;17.57;;;19.00;99.90;;;;;;5117243;23;20248;-77
2021/06/26 07:38:40;;;;;;;23.03;17.17;;;19.00;99.90;;;;;;5117237;23;20185;-77
2021/06/26 07:40:42;;;;;;;26.10;17.83;;;19.10;99.90;;;;;;5116844;23;20698;-76
2021/06/26 07:42:44;;;;;;;25.57;17.70;;;19.20;99.90;;;;;;5117170;23;20196;-77
2021/06/26 07:44:46;;;;;;;24.20;16.53;;;19.20;99.90;;;;;;5116646;23;20514;-76
2021/06/26 07:46:47;;;;;;;22.27;16.30;;;19.30;99.90;;;;;;5118695;23;20234;-77
2021/06/26 07:48:49;;;;;;;24.37;15.77;;;19.40;99.90;;;;;;5118768;23;20218;-76
2021/06/26 07:50:51;;;;;;;21.67;15.67;;;19.50;99.90;;;;;;5119096;23;20637;-77
2021/06/26 07:52:53;;;;;;;24.17;16.90;;;19.60;99.90;;;;;;5119063;23;20217;-77
2021/06/26 07:54:56;;;;;;;25.90;16.30;;;19.60;99.90;;;;;;5119138;23;20281;-76
2021/06/26 07:56:58;;;;;;;24.03;16.40;;;19.70;99.90;;;;;;5119161;23;20185;-76
2021/06/26 07:59:00;;;;;;;21.73;15.90;;;19.80;99.90;;;;;;5118048;23;20193;-76
2021/06/26 08:01:02;;;;;;;24.23;15.97;;;19.80;99.90;;;;;;5118164;23;20528;-76
2021/06/26 08:03:04;;;;;;;23.23;15.80;;;19.90;99.90;;;;;;5118268;23;20182;-76
2021/06/26 08:05:07;;;;;;;24.07;15.90;;;19.90;99.90;;;;;;5117908;23;20212;-76
2021/06/26 08:07:08;;;;;;;22.50;16.20;;;19.90;99.90;;;;;;5118690;23;20250;-77
2021/06/26 08:09:10;;;;;;;24.63;16.63;;;19.90;99.90;;;;;;5116194;23;20250;-76
2021/06/26 08:11:13;;;;;;;24.33;16.43;;;19.90;99.90;;;;;;5118154;23;20204;-76
2021/06/26 08:13:16;;;;;;;24.77;16.40;;;19.90;99.90;;;;;;5121185;23;20220;-75
2021/06/26 08:15:19;;;;;;;22.23;15.73;;;19.90;99.90;;;;;;5118564;23;20227;-76
2021/06/26 08:17:21;;;;;;;21.03;14.70;;;19.90;99.90;;;;;;5118763;23;20626;-75
2021/06/26 08:19:23;;;;;;;20.77;15.03;;;20.00;99.90;;;;;;5117213;23;20182;-75
2021/06/26 08:21:25;;;;;;;19.63;14.07;;;20.00;99.90;;;;;;5118505;23;20190;-75
2021/06/26 08:23:26;;;;;;;19.97;13.73;;;20.00;99.90;;;;;;5118131;23;20558;-75
2021/06/26 08:25:28;;;;;;;20.37;14.43;;;20.10;99.90;;;;;;5117827;23;20203;-76
2021/06/26 08:27:31;;;;;;;19.60;13.93;;;20.10;99.90;;;;;;5117700;23;20185;-75
2021/06/26 08:29:33;;;;;;;19.77;14.47;;;20.20;99.90;;;;;;5115714;23;20189;-75
2021/06/26 08:31:35;;;;;;;20.43;14.40;;;20.20;99.90;;;;;;5118083;23;20251;-75
2021/06/26 08:33:37;;;;;;;19.40;14.67;;;20.30;99.90;;;;;;5118292;23;20702;-76
2021/06/26 08:35:38;;;;;;;20.07;14.57;;;20.30;99.90;;;;;;5119245;23;20242;-75
2021/06/26 08:37:42;;;;;;;23.43;15.77;;;20.40;99.90;;;;;;5116891;23;20189;-75
2021/06/26 08:39:44;;;;;;;20.20;14.33;;;20.40;99.90;;;;;;5118075;23;20499;-74
2021/06/26 08:41:48;;;;;;;18.57;13.90;;;20.40;99.90;;;;;;5119735;23;20248;-73
2021/06/26 08:43:51;;;;;;;19.00;13.23;;;20.50;99.90;;;;;;5118152;23;20186;-74
2021/06/26 08:45:53;;;;;;;17.37;13.27;;;20.50;99.90;;;;;;5116378;23;20209;-74
2021/06/26 08:47:56;;;;;;;16.83;12.40;;;20.60;99.90;;;;;;5118340;23;20205;-74
2021/06/26 08:49:58;;;;;;;17.43;13.03;;;20.70;99.90;;;;;;5118023;23;20658;-74
2021/06/26 08:52:00;;;;;;;16.83;12.43;;;20.70;99.90;;;;;;5118393;23;20268;-74
2021/06/26 08:54:01;;;;;;;16.07;12.13;;;20.70;99.90;;;;;;5118333;23;20519;-75
2021/06/26 08:56:04;;;;;;;15.50;11.07;;;20.80;99.90;;;;;;5117830;23;20202;-74
2021/06/26 08:58:06;;;;;;;15.87;11.30;;;20.80;99.90;;;;;;5118712;23;20524;-74
2021/06/26 09:00:14;;;;;;;16.53;11.60;;;20.90;99.90;;;;;;5117620;23;20185;-75
2021/06/26 09:02:21;;;;;;;15.13;10.53;;;21.00;99.90;;;;;;5117150;23;20171;-75
2021/06/26 09:04:23;;;;;;;14.50;10.67;;;21.00;99.90;;;;;;5116655;23;20217;-75
2021/06/26 09:06:25;;;;;;;16.00;11.43;;;21.10;99.90;;;;;;5117837;23;20207;-75
2021/06/26 09:08:26;;;;;;;18.20;10.77;;;21.20;99.90;;;;;;5117932;23;20193;-75
2021/06/26 09:10:28;;;;;;;13.00;10.23;;;21.20;99.80;;;;;;5117418;23;20223;-75
2021/06/26 09:12:37;;;;;;;13.10;9.63;;;21.40;99.50;;;;;;5117511;23;20262;-75
2021/06/26 09:14:40;;;;;;;12.90;9.10;;;21.60;99.10;;;;;;5117367;23;20206;-75
2021/06/26 09:16:51;;;;;;;11.23;8.87;;;21.70;98.60;;;;;;5117887;23;20190;-75
2021/06/26 09:18:54;;;;;;;11.50;9.37;;;21.90;98.00;;;;;;5117524;23;20179;-75
2021/06/26 09:20:58;;;;;;;13.23;8.70;;;22.00;97.50;;;;;;5117167;23;20226;-75
2021/06/26 09:23:02;;;;;;;11.57;8.77;;;22.20;97.30;;;;;;5117129;23;20270;-75
2021/06/26 09:25:05;;;;;;;11.83;10.00;;;22.30;96.10;;;;;;5117078;23;20207;-75
2021/06/26 09:27:08;;;;;;;11.60;9.40;;;22.50;94.90;;;;;;5118177;23;20633;-75
2021/06/26 09:29:11;;;;;;;13.63;10.90;;;22.50;93.80;;;;;;5116988;23;20581;-75
2021/06/26 09:31:17;;;;;;;12.20;9.77;;;22.60;91.90;;;;;;5116149;23;20240;-75
2021/06/26 09:33:23;;;;;;;12.57;9.87;;;22.60;91.80;;;;;;5117605;23;20186;-75
2021/06/26 09:35:25;;;;;;;13.07;9.97;;;22.60;91.10;;;;;;5118112;23;20688;-75
2021/06/26 09:37:29;;;;;;;13.90;9.80;;;22.70;91.40;;;;;;5118090;23;20185;-75
2021/06/26 09:39:35;;;;;;;12.90;9.70;;;22.70;91.80;;;;;;5117438;23;20244;-75
2021/06/26 09:41:37;;;;;;;11.50;9.27;;;22.80;92.00;;;;;;5117884;23;20190;-79
2021/06/26 09:43:39;;;;;;;15.80;9.73;;;23.00;91.80;;;;;;5119332;23;20189;-79
2021/06/26 09:45:40;;;;;;;12.00;9.43;;;23.10;91.60;;;;;;5120579;23;20210;-80
2021/06/26 09:47:45;;;;;;;11.23;8.77;;;23.20;90.60;;;;;;5120582;23;20253;-78
2021/06/26 09:49:48;;;;;;;13.40;9.80;;;23.30;89.10;;;;;;5118310;23;20256;-75
2021/06/26 09:51:57;;;;;;;11.90;9.33;;;23.30;87.30;;;;;;5118458;23;20203;-78
2021/06/26 09:54:01;;;;;;;13.80;9.43;;;23.30;88.50;;;;;;5116752;23;20607;-77
2021/06/26 09:56:03;;;;;;;14.70;10.03;;;23.30;87.80;;;;;;5117182;23;20242;-78
2021/06/26 09:58:09;;;;;;;15.23;9.47;;;23.30;88.20;;;;;;5118229;23;20240;-79
2021/06/26 10:00:15;;;;;;;11.63;9.10;;;23.20;89.90;;;;;;5120492;23;20182;-77
2021/06/26 10:02:22;;;;;;;13.50;9.63;;;23.20;88.50;;;;;;5119013;23;20265;-80
2021/06/26 10:04:24;;;;;;;13.10;9.80;;;23.20;87.40;;;;;;5115408;23;20222;-77
2021/06/26 10:06:28;;;;;;;13.33;10.40;;;23.20;87.90;;;;;;5115807;23;20256;-77
2021/06/26 10:08:30;;;;;;;13.17;9.63;;;23.10;88.50;;;;;;5116508;23;20245;-77
2021/06/26 10:10:33;;;;;;;11.93;9.57;;;23.20;89.20;;;;;;5116679;23;20199;-77
2021/06/26 10:12:36;;;;;;;11.97;9.57;;;23.10;89.00;;;;;;5116851;23;20206;-77
2021/06/26 10:14:40;;;;;;;11.43;8.77;;;23.20;90.00;;;;;;5114858;23;20261;-76
2021/06/26 10:16:43;;;;;;;9.90;8.17;;;23.30;90.30;;;;;;5117661;23;20186;-77
2021/06/26 10:18:45;;;;;;;9.30;7.83;;;23.30;89.60;;;;;;5115060;23;20642;-77
2021/06/26 10:20:47;;;;;;;9.43;7.80;;;23.40;87.90;;;;;;5117817;23;20197;-77